Time;durP1;ratioP1;P1;durP2;ratioP2;P2;SDS_P1;SDS_P2;PMS_P1;PMS_P2;Temp;Humidity;BMP_temperature;BMP_pressure;BME280_temperature;BME280_humidity;BME280_pressure;Samples;Min_cycle;Max_cycle;Signal;HPM_P1;HPM_P2
2022/06/19 00:04:55;;;;;;;4.03;1.13;;;28.00;29.10;;;;;;21066546;28;20060;-66
2022/06/19 00:15:17;;;;;;;2.03;0.80;;;27.70;29.80;;;;;;21066955;28;20128;-65
2022/06/19 00:25:39;;;;;;;3.47;0.77;;;27.50;30.20;;;;;;21066377;28;20346;-65
2022/06/19 00:36:00;;;;;;;3.88;1.00;;;27.30;30.50;;;;;;21066639;28;20514;-66
2022/06/19 00:46:52;;;;;;;1.50;0.88;;;27.10;30.90;;;;;;21060169;28;20447;-66
2022/06/19 00:57:15;;;;;;;3.17;0.88;;;27.10;31.30;;;;;;21006388;28;20059;-61
2022/06/19 01:07:39;;;;;;;4.35;2.10;;;26.90;31.40;;;;;;21006166;28;20055;-61
2022/06/19 01:18:06;;;;;;;2.03;1.02;;;26.80;31.60;;;;;;21005512;28;20051;-66
2022/06/19 01:39:12;;;;;;;2.73;0.67;;;26.50;32.20;;;;;;21003520;28;20138;-64
2022/06/19 01:49:35;;;;;;;2.17;0.90;;;26.30;32.30;;;;;;21005018;28;20040;-65
2022/06/19 01:59:57;;;;;;;5.55;0.90;;;26.10;33.10;;;;;;21001628;28;20056;-63
2022/06/19 02:10:18;;;;;;;3.92;0.77;;;25.90;33.50;;;;;;21002292;28;20102;-64
2022/06/19 02:20:39;;;;;;;3.60;1.10;;;25.70;33.70;;;;;;21000351;28;20055;-61
2022/06/19 02:31:01;;;;;;;1.60;0.40;;;25.60;34.20;;;;;;21000140;28;20049;-61
2022/06/19 02:41:27;;;;;;;3.60;0.80;;;25.30;34.20;;;;;;20999136;28;20056;-63
2022/06/19 02:51:48;;;;;;;4.40;0.70;;;25.20;34.40;;;;;;20999200;28;20110;-63
2022/06/19 03:02:11;;;;;;;3.25;0.52;;;25.00;34.90;;;;;;20996177;28;20408;-60
2022/06/19 03:12:33;;;;;;;3.63;0.70;;;24.80;35.50;;;;;;20997828;28;20594;-59
2022/06/19 03:22:54;;;;;;;2.10;0.93;;;24.60;36.10;;;;;;20996461;28;20056;-61
2022/06/19 03:33:15;;;;;;;2.58;0.80;;;24.50;36.70;;;;;;20994957;28;20048;-63
2022/06/19 03:43:37;;;;;;;2.58;0.90;;;24.30;37.40;;;;;;20995489;28;20105;-61
2022/06/19 03:53:58;;;;;;;3.28;0.93;;;24.10;38.30;;;;;;20994531;28;20060;-59
2022/06/19 04:04:19;;;;;;;2.78;1.25;;;24.00;38.80;;;;;;20994636;28;20049;-59
2022/06/19 04:14:40;;;;;;;3.88;0.80;;;23.80;39.60;;;;;;20994951;28;20070;-60
2022/06/19 04:25:03;;;;;;;3.25;0.98;;;23.70;40.40;;;;;;21000954;28;20060;-60
2022/06/19 04:35:24;;;;;;;5.63;1.60;;;23.70;41.10;;;;;;21010955;28;20515;-60
2022/06/19 04:45:45;;;;;;;3.38;1.10;;;23.60;41.70;;;;;;21010024;28;20056;-59
2022/06/19 04:56:08;;;;;;;3.80;1.90;;;23.10;43.10;;;;;;21007860;28;20058;-61
2022/06/19 05:06:29;;;;;;;5.97;2.17;;;22.80;44.10;;;;;;21007721;28;20056;-60
2022/06/19 05:16:51;;;;;;;3.22;1.73;;;22.80;44.30;;;;;;21009906;28;20052;-63
2022/06/19 05:27:12;;;;;;;5.78;1.67;;;22.90;44.40;;;;;;21017252;28;20053;-67
2022/06/19 05:37:33;;;;;;;6.20;2.20;;;22.70;44.90;;;;;;21010083;28;20106;-65
2022/06/19 05:47:54;;;;;;;3.08;1.42;;;22.70;45.00;;;;;;21011383;28;20048;-65
2022/06/19 05:58:15;;;;;;;5.68;2.45;;;22.60;45.20;;;;;;21009215;28;20454;-66
2022/06/19 06:08:37;;;;;;;6.05;1.77;;;22.80;44.90;;;;;;21006683;28;20136;-65
2022/06/19 06:18:58;;;;;;;6.15;1.35;;;22.70;45.30;;;;;;21005519;28;20056;-65
2022/06/19 06:29:20;;;;;;;2.58;1.23;;;22.80;45.20;;;;;;21006554;28;20052;-69
2022/06/19 06:39:42;;;;;;;2.35;1.10;;;22.70;45.10;;;;;;21003057;28;20109;-68
2022/06/19 06:50:03;;;;;;;2.53;1.10;;;22.90;44.60;;;;;;21002507;28;20063;-64
2022/06/19 07:00:24;;;;;;;5.65;2.03;;;23.20;43.80;;;;;;21000810;28;20106;-68
2022/06/19 07:10:46;;;;;;;5.65;1.55;;;24.10;42.30;;;;;;20999366;28;20045;-64
2022/06/19 07:21:10;;;;;;;5.03;1.40;;;25.00;41.10;;;;;;20997812;28;20385;-64
2022/06/19 07:31:32;;;;;;;4.00;1.50;;;25.60;40.10;;;;;;20996543;28;20113;-70
2022/06/19 07:41:53;;;;;;;5.25;1.38;;;25.90;39.70;;;;;;20996697;28;20053;-67
2022/06/19 07:52:14;;;;;;;5.32;1.20;;;26.30;39.10;;;;;;20996838;28;20475;-67
2022/06/19 08:02:35;;;;;;;7.43;1.08;;;26.50;38.80;;;;;;21012609;28;20060;-70
2022/06/19 08:12:57;;;;;;;4.75;1.13;;;26.40;38.80;;;;;;21016746;28;20052;-66
2022/06/19 08:23:19;;;;;;;9.25;3.00;;;26.70;38.10;;;;;;21010205;28;20534;-69
2022/06/19 08:33:40;;;;;;;4.70;1.42;;;27.20;37.60;;;;;;21016572;28;20098;-67
2022/06/19 08:44:43;;;;;;;4.25;0.88;;;27.20;37.60;;;;;;21009563;28;20549;-68
2022/06/19 08:55:34;;;;;;;2.80;0.98;;;27.40;37.70;;;;;;20918570;28;20048;-71
2022/06/19 09:06:12;;;;;;;5.40;1.52;;;27.50;37.40;;;;;;20908208;28;20064;-63
2022/06/19 09:16:56;;;;;;;4.82;1.17;;;27.60;36.50;;;;;;20919178;28;20574;-60
2022/06/19 09:27:16;;;;;;;5.10;0.93;;;27.40;36.30;;;;;;20940593;28;20514;-60
2022/06/19 09:37:41;;;;;;;6.50;1.02;;;27.60;36.10;;;;;;21004920;28;20053;-61
2022/06/19 09:48:20;;;;;;;2.88;1.20;;;27.70;36.00;;;;;;21005257;28;20423;-61
2022/06/19 09:58:49;;;;;;;2.92;0.82;;;27.60;36.20;;;;;;21004094;28;20052;-60
2022/06/19 10:09:24;;;;;;;3.00;0.70;;;28.00;35.30;;;;;;21004919;28;20401;-60
2022/06/19 10:19:54;;;;;;;3.75;1.15;;;27.90;35.20;;;;;;21000291;28;20053;-61
2022/06/19 10:30:26;;;;;;;2.60;0.77;;;28.00;35.40;;;;;;21000066;28;20052;-67
2022/06/19 10:52:20;;;;;;;4.60;0.90;;;28.00;35.10;;;;;;20999392;28;20401;-62
2022/06/19 11:14:09;;;;;;;6.13;0.85;;;28.20;34.70;;;;;;21002887;28;20439;-64
2022/06/19 11:24:33;;;;;;;4.30;1.58;;;27.70;34.90;;;;;;21003999;28;20049;-62
2022/06/19 11:35:07;;;;;;;7.85;2.85;;;28.10;34.20;;;;;;20997087;28;20056;-61
2022/06/19 11:45:36;;;;;;;6.88;2.25;;;28.20;33.90;;;;;;20995665;28;20102;-69
2022/06/19 11:56:21;;;;;;;3.80;1.00;;;28.20;33.70;;;;;;20963695;28;20044;-61
2022/06/19 12:06:51;;;;;;;431.17;384.88;;;28.40;34.70;;;;;;20907387;28;20570;-64
2022/06/19 12:17:19;;;;;;;83.77;18.03;;;29.30;31.90;;;;;;20914067;28;20445;-61
2022/06/19 12:28:06;;;;;;;3.85;0.80;;;28.80;32.40;;;;;;20915304;28;20053;-63
2022/06/19 12:38:32;;;;;;;3.50;1.30;;;28.80;32.20;;;;;;20914510;28;20469;-64
2022/06/19 12:49:02;;;;;;;4.28;1.15;;;28.70;32.10;;;;;;20925341;28;20044;-67
2022/06/19 13:00:07;;;;;;;40.00;2.80;;;29.00;31.70;;;;;;20931700;28;20053;-65
2022/06/19 13:10:39;;;;;;;34.15;16.65;;;29.00;31.50;;;;;;20836376;28;20049;-66
2022/06/19 13:21:24;;;;;;;112.07;73.05;;;29.20;30.40;;;;;;20833763;28;20518;-68
2022/06/19 13:31:49;;;;;;;2.47;0.82;;;29.20;30.70;;;;;;20833277;28;20481;-65
2022/06/19 13:42:14;;;;;;;25.40;2.45;;;29.40;30.60;;;;;;20876664;28;20119;-65
2022/06/19 13:52:44;;;;;;;7.40;2.75;;;29.20;30.80;;;;;;20924066;28;20056;-68
2022/06/19 14:03:14;;;;;;;5.28;2.60;;;29.40;30.40;;;;;;20919935;28;20512;-66
2022/06/19 14:13:49;;;;;;;5.53;3.03;;;29.40;30.50;;;;;;20922123;28;20049;-67
2022/06/19 14:24:24;;;;;;;8.80;4.65;;;29.60;30.10;;;;;;20921356;28;20084;-66
2022/06/19 14:35:03;;;;;;;75.65;6.78;;;29.50;30.00;;;;;;20919204;28;20049;-61
2022/06/19 14:45:30;;;;;;;0.93;0.65;;;29.70;30.00;;;;;;20928543;28;20065;-61
2022/06/19 14:56:23;;;;;;;2.42;1.08;;;29.60;30.30;;;;;;20917126;28;20103;-60
2022/06/19 15:07:21;;;;;;;3.88;1.02;;;29.40;30.80;;;;;;20918364;28;20060;-62
2022/06/19 15:17:51;;;;;;;3.38;1.20;;;29.70;29.90;;;;;;20924598;28;20401;-61
2022/06/19 15:28:34;;;;;;;4.57;1.08;;;29.40;30.50;;;;;;20924365;28;20049;-61
2022/06/19 15:39:28;;;;;;;32.55;2.70;;;29.50;30.30;;;;;;20985931;28;20064;-64
2022/06/19 15:49:57;;;;;;;3.17;0.75;;;29.70;30.10;;;;;;21003092;28;20064;-61
2022/06/19 16:00:30;;;;;;;4.18;1.50;;;29.60;30.20;;;;;;21007744;28;20530;-63
2022/06/19 16:10:54;;;;;;;4.13;2.50;;;29.60;30.10;;;;;;21000136;28;20056;-64
2022/06/19 16:21:15;;;;;;;18.13;13.98;;;29.40;30.60;;;;;;21003112;28;20052;-63
2022/06/19 16:31:34;;;;;;;63.20;3.28;;;29.50;30.70;;;;;;21021471;28;20048;-66
2022/06/19 16:52:21;;;;;;;3.35;1.08;;;29.50;30.70;;;;;;21015407;28;20463;-61
2022/06/19 17:03:00;;;;;;;21.80;1.33;;;29.40;30.90;;;;;;21016841;28;20408;-69
2022/06/19 17:13:22;;;;;;;2.07;0.80;;;29.20;31.40;;;;;;21016038;28;20064;-62
2022/06/19 17:24:07;;;;;;;20.70;1.73;;;29.20;31.80;;;;;;21021123;28;20049;-67
2022/06/19 17:34:29;;;;;;;3.10;0.90;;;29.20;31.80;;;;;;21016505;28;20056;-61
2022/06/19 17:44:57;;;;;;;3.70;0.95;;;29.00;32.00;;;;;;21021783;28;20052;-63
2022/06/19 17:55:36;;;;;;;6.45;1.25;;;28.70;32.30;;;;;;21010601;28;20378;-62
2022/06/19 18:05:58;;;;;;;3.30;0.95;;;28.40;32.80;;;;;;21020461;28;20048;-62
2022/06/19 18:27:15;;;;;;;4.65;1.17;;;28.20;33.20;;;;;;21001660;28;20044;-61
2022/06/19 18:37:37;;;;;;;3.28;1.10;;;28.00;33.50;;;;;;21001117;28;20055;-64
2022/06/19 18:47:58;;;;;;;5.43;1.27;;;27.80;33.80;;;;;;21001142;28;20106;-66
2022/06/19 18:58:24;;;;;;;7.87;1.53;;;27.60;34.10;;;;;;20999037;28;20074;-67
2022/06/19 19:08:48;;;;;;;4.20;1.27;;;27.30;34.60;;;;;;21001144;28;20048;-68
2022/06/19 19:19:22;;;;;;;3.63;1.30;;;27.30;35.20;;;;;;21003309;28;20053;-70
2022/06/19 19:29:43;;;;;;;312.95;279.77;;;27.10;35.50;;;;;;21001373;28;20155;-69
2022/06/19 19:40:12;;;;;;;3.92;1.48;;;26.80;35.70;;;;;;21000183;28;20083;-69
2022/06/19 19:50:33;;;;;;;5.13;1.60;;;26.50;36.40;;;;;;21000945;28;20409;-63
2022/06/19 20:00:54;;;;;;;3.08;1.27;;;26.20;36.90;;;;;;21014895;28;20048;-68
2022/06/19 20:11:28;;;;;;;3.15;1.45;;;26.10;37.00;;;;;;21015929;28;20044;-68
2022/06/19 20:21:50;;;;;;;3.70;2.03;;;25.90;37.40;;;;;;21013465;28;20139;-66
2022/06/19 20:32:15;;;;;;;5.90;1.55;;;25.80;37.50;;;;;;21015195;28;20110;-66
2022/06/19 20:42:37;;;;;;;311.67;289.77;;;25.80;37.50;;;;;;21010662;28;20053;-67
2022/06/19 20:52:58;;;;;;;5.28;1.33;;;25.60;37.70;;;;;;21013508;28;20045;-63
2022/06/19 21:03:19;;;;;;;1.98;1.20;;;25.60;37.80;;;;;;21010666;28;20052;-64
2022/06/19 21:13:43;;;;;;;3.38;1.10;;;25.40;38.00;;;;;;21010533;28;20126;-61
2022/06/19 21:24:09;;;;;;;4.40;1.20;;;25.40;38.20;;;;;;21009374;28;20086;-65
2022/06/19 21:34:31;;;;;;;3.08;1.02;;;25.30;38.40;;;;;;21008475;28;20060;-65
2022/06/19 21:44:52;;;;;;;5.57;1.30;;;25.30;38.50;;;;;;21006986;28;20044;-64
2022/06/19 21:55:19;;;;;;;4.63;1.07;;;25.20;38.60;;;;;;21007625;28;20048;-65
2022/06/19 22:05:40;;;;;;;3.58;1.52;;;25.00;38.80;;;;;;21002067;28;20044;-69
2022/06/19 22:16:01;;;;;;;6.68;1.42;;;24.90;39.00;;;;;;21001987;28;20052;-67
2022/06/19 22:26:23;;;;;;;3.92;1.48;;;24.90;39.20;;;;;;21002813;28;20409;-69
2022/06/19 22:36:51;;;;;;;6.65;1.42;;;24.80;39.20;;;;;;21001706;28;20059;-68
2022/06/19 22:47:21;;;;;;;3.83;1.27;;;24.90;39.30;;;;;;21001644;28;20041;-64
2022/06/19 22:58:14;;;;;;;5.40;1.60;;;24.90;39.50;;;;;;21009103;28;20076;-63
2022/06/19 23:08:35;;;;;;;4.72;1.70;;;24.90;39.60;;;;;;21006530;28;20044;-62
2022/06/19 23:18:56;;;;;;;4.60;1.90;;;24.80;39.70;;;;;;21002527;28;20060;-64
2022/06/19 23:29:19;;;;;;;3.53;1.40;;;24.80;39.80;;;;;;21001468;28;20048;-68
2022/06/19 23:39:41;;;;;;;2.72;1.10;;;24.70;39.90;;;;;;21000072;28;20063;-64
2022/06/19 23:50:04;;;;;;;5.22;1.30;;;24.70;39.90;;;;;;20998988;28;20464;-65
